Time;durP1;ratioP1;P1;durP2;ratioP2;P2;SDS_P1;SDS_P2;PMS_P1;PMS_P2;Temp;Humidity;BMP_temperature;BMP_pressure;BME280_temperature;BME280_humidity;BME280_pressure;Samples;Min_cycle;Max_cycle;Signal;HPM_P1;HPM_P2
2023/03/16 00:01:16;;;;;;;3.55;1.40;;;4.70;77.40;;;;;;4942542;28;20059;-35
2023/03/16 00:03:42;;;;;;;4.80;1.30;;;4.60;77.80;;;;;;4940052;28;20059;-35
2023/03/16 00:06:08;;;;;;;4.88;1.00;;;4.70;77.80;;;;;;4945301;28;20055;-35
2023/03/16 00:08:34;;;;;;;4.80;1.23;;;4.70;78.20;;;;;;4937418;28;20135;-37
2023/03/16 00:11:01;;;;;;;5.10;1.00;;;4.70;78.40;;;;;;4945591;28;20090;-36
2023/03/16 00:13:27;;;;;;;2.75;1.10;;;4.70;78.50;;;;;;4942724;28;20055;-36
2023/03/16 00:15:55;;;;;;;4.50;1.48;;;4.70;78.80;;;;;;4945579;28;20094;-35
2023/03/16 00:18:25;;;;;;;6.15;1.40;;;4.70;79.20;;;;;;4942479;28;20137;-37
2023/03/16 00:20:57;;;;;;;6.88;1.65;;;4.70;79.60;;;;;;4945223;28;20109;-35
2023/03/16 00:23:26;;;;;;;4.03;1.02;;;4.70;79.90;;;;;;4943218;28;20170;-36
2023/03/16 00:26:01;;;;;;;6.95;1.52;;;4.70;79.70;;;;;;4943346;28;20058;-35
2023/03/16 00:28:33;;;;;;;4.32;1.83;;;4.70;79.70;;;;;;4941800;28;20055;-35
2023/03/16 00:31:00;;;;;;;2.78;1.23;;;4.70;80.10;;;;;;4944636;28;20203;-36
2023/03/16 00:33:26;;;;;;;4.70;1.85;;;4.70;80.20;;;;;;4940186;28;20509;-36
2023/03/16 00:36:00;;;;;;;3.38;1.10;;;4.70;80.10;;;;;;4941491;28;20141;-35
2023/03/16 00:38:28;;;;;;;2.63;1.23;;;4.60;80.20;;;;;;4944649;28;20058;-35
2023/03/16 00:40:54;;;;;;;4.13;1.17;;;4.70;80.40;;;;;;4942777;28;20074;-36
2023/03/16 00:43:19;;;;;;;4.65;1.55;;;4.60;80.70;;;;;;4944273;28;20059;-36
2023/03/16 00:45:45;;;;;;;3.25;1.42;;;4.60;81.00;;;;;;4939802;28;20349;-36
2023/03/16 00:48:11;;;;;;;5.40;1.65;;;4.60;81.10;;;;;;4940583;28;20413;-36
2023/03/16 00:50:37;;;;;;;5.57;1.60;;;4.60;81.60;;;;;;4941707;28;20059;-35
2023/03/16 00:53:03;;;;;;;9.48;1.50;;;4.60;81.80;;;;;;4934730;28;20066;-36
2023/03/16 00:55:29;;;;;;;3.03;1.15;;;4.60;81.80;;;;;;4934506;28;20056;-35
2023/03/16 00:57:54;;;;;;;3.50;1.45;;;4.60;82.00;;;;;;4942073;28;20047;-36
2023/03/16 01:00:21;;;;;;;3.20;1.52;;;4.60;82.20;;;;;;4938037;28;20110;-35
2023/03/16 01:02:47;;;;;;;4.70;1.30;;;4.60;82.30;;;;;;4938039;28;20062;-36
2023/03/16 01:05:13;;;;;;;4.45;1.50;;;4.50;83.50;;;;;;4941328;28;20044;-35
2023/03/16 01:07:40;;;;;;;5.03;1.77;;;4.50;83.30;;;;;;4940302;28;20114;-36
2023/03/16 01:10:07;;;;;;;3.50;1.50;;;4.50;83.00;;;;;;4941975;28;20405;-35
2023/03/16 01:12:33;;;;;;;3.92;1.27;;;4.50;83.20;;;;;;4941556;28;20047;-35
2023/03/16 01:14:59;;;;;;;5.75;1.50;;;4.50;83.60;;;;;;4944266;28;20046;-35
2023/03/16 01:17:25;;;;;;;4.32;1.40;;;4.50;83.90;;;;;;4944264;28;20497;-35
2023/03/16 01:19:51;;;;;;;4.03;2.00;;;4.50;83.90;;;;;;4943071;28;20055;-36
2023/03/16 01:22:18;;;;;;;5.07;1.25;;;4.50;83.90;;;;;;4945638;28;20145;-35
2023/03/16 01:24:44;;;;;;;4.90;1.50;;;4.50;84.20;;;;;;4945749;28;20047;-35
2023/03/16 01:27:11;;;;;;;5.22;1.45;;;4.50;84.20;;;;;;4943116;28;20694;-38
2023/03/16 01:29:38;;;;;;;6.07;1.50;;;4.50;84.60;;;;;;4937748;28;20050;-36
2023/03/16 01:32:05;;;;;;;4.07;1.42;;;4.50;84.50;;;;;;4940650;28;20054;-36
2023/03/16 01:34:32;;;;;;;5.22;2.15;;;4.50;84.30;;;;;;4940830;28;20043;-37
2023/03/16 01:36:58;;;;;;;3.85;1.40;;;4.50;84.50;;;;;;4940403;28;20366;-36
2023/03/16 01:39:24;;;;;;;3.15;1.27;;;4.50;84.40;;;;;;4944775;28;20051;-36
2023/03/16 01:41:49;;;;;;;3.53;1.30;;;4.50;84.80;;;;;;4941314;28;20075;-36
2023/03/16 01:44:19;;;;;;;4.25;1.45;;;4.50;84.60;;;;;;4943972;28;20051;-36
2023/03/16 01:46:44;;;;;;;3.97;1.33;;;4.60;84.60;;;;;;4943375;28;20051;-36
2023/03/16 01:49:22;;;;;;;4.60;1.33;;;4.60;84.50;;;;;;4943349;28;20051;-36
2023/03/16 01:51:53;;;;;;;4.03;1.55;;;4.60;84.80;;;;;;4945295;28;20142;-36
2023/03/16 01:54:30;;;;;;;4.25;1.45;;;4.60;85.10;;;;;;4941579;28;20063;-36
2023/03/16 01:57:29;;;;;;;4.72;1.80;;;4.60;85.10;;;;;;4944556;28;20413;-36
2023/03/16 02:00:18;;;;;;;4.28;1.77;;;4.60;85.40;;;;;;4943269;28;20062;-36
2023/03/16 02:02:57;;;;;;;4.25;1.60;;;4.60;85.30;;;;;;4943733;28;20405;-36
2023/03/16 02:05:35;;;;;;;5.05;1.55;;;4.60;85.40;;;;;;4939006;28;20046;-36
2023/03/16 02:08:02;;;;;;;6.03;1.55;;;4.60;85.60;;;;;;4925650;29;20446;-36
2023/03/16 02:10:28;;;;;;;8.35;1.80;;;4.60;85.40;;;;;;4933879;28;20082;-36
2023/03/16 02:12:54;;;;;;;3.78;1.73;;;4.60;85.50;;;;;;4947046;29;20131;-36
2023/03/16 02:15:20;;;;;;;4.53;1.55;;;4.60;85.60;;;;;;4942888;28;20051;-36
2023/03/16 02:17:48;;;;;;;3.80;1.73;;;4.60;85.90;;;;;;4939754;28;20066;-37
2023/03/16 02:20:35;;;;;;;4.53;1.67;;;4.70;87.60;;;;;;4937627;28;20048;-36
2023/03/16 02:23:03;;;;;;;6.28;1.65;;;4.60;87.20;;;;;;4944337;28;20051;-37
2023/03/16 02:25:43;;;;;;;4.95;2.28;;;4.60;86.70;;;;;;4940394;28;20048;-36
2023/03/16 02:28:34;;;;;;;3.85;1.83;;;4.60;86.90;;;;;;4941086;28;20051;-36
2023/03/16 02:31:00;;;;;;;4.55;2.15;;;4.70;87.30;;;;;;4942291;28;20490;-37
2023/03/16 02:33:28;;;;;;;6.15;2.03;;;4.70;87.10;;;;;;4944153;28;20089;-36
2023/03/16 02:35:54;;;;;;;4.30;2.17;;;4.60;87.50;;;;;;4942097;28;20485;-36
2023/03/16 02:38:20;;;;;;;4.82;2.10;;;4.60;87.50;;;;;;4942048;28;20047;-36
2023/03/16 02:40:57;;;;;;;3.97;2.00;;;4.60;87.90;;;;;;4944073;28;20505;-37
2023/03/16 02:43:32;;;;;;;5.43;1.40;;;4.60;88.10;;;;;;4941030;28;20073;-36
2023/03/16 02:46:03;;;;;;;5.85;1.80;;;4.60;87.80;;;;;;4942168;28;20043;-36
2023/03/16 02:48:32;;;;;;;4.63;1.60;;;4.70;88.20;;;;;;4939551;28;20509;-35
2023/03/16 02:50:58;;;;;;;3.40;1.80;;;4.70;88.50;;;;;;4944545;28;20314;-35
2023/03/16 02:53:23;;;;;;;6.35;2.00;;;4.70;88.20;;;;;;4942530;28;20062;-35
2023/03/16 02:55:49;;;;;;;4.20;1.92;;;4.60;88.30;;;;;;4941715;28;20070;-35
2023/03/16 02:58:16;;;;;;;5.88;2.10;;;4.60;88.30;;;;;;4943876;28;20049;-35
2023/03/16 03:00:42;;;;;;;4.63;2.20;;;4.60;88.70;;;;;;4939377;28;20536;-36
2023/03/16 03:03:08;;;;;;;5.97;1.92;;;4.60;88.70;;;;;;4939807;28;20055;-36
2023/03/16 03:05:34;;;;;;;4.95;2.10;;;4.60;89.10;;;;;;4944715;28;20078;-35
2023/03/16 03:08:00;;;;;;;6.13;2.38;;;4.70;89.60;;;;;;4941568;28;20054;-35
2023/03/16 03:10:26;;;;;;;8.48;2.90;;;4.70;90.00;;;;;;4943020;28;20141;-35
2023/03/16 03:12:51;;;;;;;4.18;1.90;;;4.60;90.10;;;;;;4947757;28;20141;-35
2023/03/16 03:15:18;;;;;;;5.95;2.40;;;4.60;90.30;;;;;;4944641;28;20043;-36
2023/03/16 03:17:44;;;;;;;5.47;2.50;;;4.60;90.20;;;;;;4941107;28;20696;-36
2023/03/16 03:20:15;;;;;;;6.38;2.65;;;4.60;90.40;;;;;;4940090;28;20055;-36
2023/03/16 03:22:46;;;;;;;6.23;2.43;;;4.60;90.30;;;;;;4942165;28;20048;-35
2023/03/16 03:25:13;;;;;;;5.78;2.42;;;4.60;90.60;;;;;;4940148;28;20046;-35
2023/03/16 03:27:41;;;;;;;5.55;2.70;;;4.60;90.80;;;;;;4943945;28;20121;-35
2023/03/16 03:30:09;;;;;;;4.60;2.20;;;4.60;91.10;;;;;;4943564;28;20505;-35
2023/03/16 03:32:35;;;;;;;5.90;2.42;;;4.60;90.80;;;;;;4942245;28;20062;-35
2023/03/16 03:35:01;;;;;;;6.32;2.55;;;4.60;90.90;;;;;;4941991;28;20402;-36
2023/03/16 03:37:27;;;;;;;6.38;3.40;;;4.60;90.80;;;;;;4942309;28;20146;-42
2023/03/16 03:39:53;;;;;;;6.10;2.35;;;4.60;91.00;;;;;;4945707;28;20469;-36
2023/03/16 03:42:19;;;;;;;6.22;2.25;;;4.60;91.00;;;;;;4942210;28;20051;-36
2023/03/16 03:44:44;;;;;;;7.63;2.25;;;4.60;91.10;;;;;;4940512;28;20063;-35
2023/03/16 03:47:10;;;;;;;7.63;2.60;;;4.60;91.10;;;;;;4940648;28;20062;-35
2023/03/16 03:49:36;;;;;;;3.55;2.08;;;4.50;91.50;;;;;;4942695;28;20502;-35
2023/03/16 03:52:03;;;;;;;5.60;2.20;;;4.60;91.50;;;;;;4942933;28;20494;-36
2023/03/16 03:54:30;;;;;;;5.60;2.25;;;4.50;91.60;;;;;;4940572;28;20043;-35
2023/03/16 03:56:55;;;;;;;6.68;2.60;;;4.60;91.70;;;;;;4938928;28;20040;-36
2023/03/16 03:59:21;;;;;;;7.05;2.45;;;4.50;91.60;;;;;;4943133;28;20049;-36
2023/03/16 04:01:48;;;;;;;6.55;2.65;;;4.50;91.80;;;;;;4944290;28;20572;-35
2023/03/16 04:04:14;;;;;;;5.25;2.30;;;4.50;91.80;;;;;;4939094;28;20055;-39
2023/03/16 04:06:40;;;;;;;5.68;2.70;;;4.50;91.90;;;;;;4941897;28;20683;-35
2023/03/16 04:09:07;;;;;;;6.05;2.65;;;4.50;92.00;;;;;;4941700;28;20062;-35
2023/03/16 04:11:33;;;;;;;7.65;3.00;;;4.50;92.10;;;;;;4947826;28;20042;-36
2023/03/16 04:13:58;;;;;;;6.88;2.58;;;4.50;92.10;;;;;;4942655;28;20055;-35
2023/03/16 04:16:25;;;;;;;8.35;2.80;;;4.50;92.20;;;;;;4943908;28;20078;-36
2023/03/16 04:18:54;;;;;;;6.95;3.13;;;4.50;92.20;;;;;;4946876;28;20441;-36
2023/03/16 04:21:21;;;;;;;5.93;3.00;;;4.50;92.60;;;;;;4943325;28;20090;-35
2023/03/16 04:23:48;;;;;;;4.57;2.42;;;4.50;92.40;;;;;;4941804;28;20573;-36
2023/03/16 04:26:15;;;;;;;7.55;3.45;;;4.50;92.30;;;;;;4945276;28;20134;-35
2023/03/16 04:28:42;;;;;;;9.20;2.97;;;4.50;92.40;;;;;;4943643;28;20129;-36
2023/03/16 04:31:09;;;;;;;5.15;3.00;;;4.50;92.60;;;;;;4940376;28;20059;-35
2023/03/16 04:33:37;;;;;;;5.60;2.95;;;4.50;92.70;;;;;;4946044;28;20146;-36
2023/03/16 04:36:04;;;;;;;5.70;3.00;;;4.50;92.70;;;;;;4945248;28;20160;-36
2023/03/16 04:38:32;;;;;;;5.88;2.72;;;4.50;92.80;;;;;;4940243;28;20055;-37
2023/03/16 04:40:58;;;;;;;5.72;2.75;;;4.40;92.80;;;;;;4947962;28;20051;-35
2023/03/16 04:43:24;;;;;;;6.07;2.25;;;4.50;92.60;;;;;;4946234;28;20113;-37
2023/03/16 04:45:50;;;;;;;6.55;2.67;;;4.50;92.80;;;;;;4948152;28;20486;-37
2023/03/16 04:48:16;;;;;;;7.03;2.53;;;4.50;92.80;;;;;;4944242;28;20050;-35
2023/03/16 04:50:42;;;;;;;8.63;2.50;;;4.50;92.90;;;;;;4946020;28;20453;-36
2023/03/16 04:53:07;;;;;;;4.88;2.35;;;4.50;92.90;;;;;;4944371;28;20047;-34
2023/03/16 04:55:33;;;;;;;6.45;2.50;;;4.50;93.00;;;;;;4944144;28;20059;-35
2023/03/16 04:57:59;;;;;;;5.28;2.42;;;4.50;93.10;;;;;;4947084;28;20093;-35
2023/03/16 05:00:25;;;;;;;5.70;2.45;;;4.50;92.90;;;;;;4946616;28;20054;-35
2023/03/16 05:02:51;;;;;;;4.90;2.58;;;4.50;93.00;;;;;;4946489;28;20050;-36
2023/03/16 05:05:17;;;;;;;5.40;2.53;;;4.50;93.10;;;;;;4943039;28;20043;-35
2023/03/16 05:07:44;;;;;;;6.45;2.70;;;4.50;93.00;;;;;;4945752;28;20055;-35
2023/03/16 05:10:12;;;;;;;5.60;2.67;;;4.50;93.10;;;;;;4941870;28;20051;-36
2023/03/16 05:12:38;;;;;;;5.82;2.17;;;4.60;93.30;;;;;;4941695;28;20108;-35
2023/03/16 05:15:05;;;;;;;5.20;2.63;;;4.50;93.70;;;;;;4944663;28;20079;-36
2023/03/16 05:17:31;;;;;;;5.47;2.47;;;4.50;93.60;;;;;;4940682;28;20055;-35
2023/03/16 05:19:57;;;;;;;6.47;2.97;;;4.50;93.70;;;;;;4940739;28;20493;-35
2023/03/16 05:22:22;;;;;;;7.90;2.47;;;4.50;93.70;;;;;;4945807;28;20047;-36
2023/03/16 05:24:48;;;;;;;8.38;3.13;;;4.50;93.70;;;;;;4941830;28;20047;-35
2023/03/16 05:27:14;;;;;;;4.93;2.58;;;4.50;93.80;;;;;;4944051;28;20055;-35
2023/03/16 05:29:44;;;;;;;4.25;2.20;;;4.50;94.00;;;;;;4943598;28;20047;-35
2023/03/16 05:32:10;;;;;;;4.57;1.92;;;4.40;94.10;;;;;;4941505;28;20394;-35
2023/03/16 05:34:36;;;;;;;5.85;2.72;;;4.40;94.30;;;;;;4941506;28;20060;-35
2023/03/16 05:37:02;;;;;;;5.30;2.78;;;4.40;94.40;;;;;;4943728;28;20078;-35
2023/03/16 05:39:29;;;;;;;7.55;2.40;;;4.40;94.40;;;;;;4943052;28;20493;-41
2023/03/16 05:41:56;;;;;;;5.47;2.42;;;4.40;94.80;;;;;;4939425;28;20490;-36
2023/03/16 05:44:23;;;;;;;5.65;3.00;;;4.40;94.60;;;;;;4943172;28;20350;-36
2023/03/16 05:46:49;;;;;;;6.60;2.60;;;4.40;94.80;;;;;;4943267;28;20130;-35
2023/03/16 05:49:15;;;;;;;9.98;2.72;;;4.40;94.90;;;;;;4944835;28;20058;-35
2023/03/16 05:51:41;;;;;;;5.30;2.80;;;4.50;95.10;;;;;;4944122;28;20047;-35
2023/03/16 05:54:07;;;;;;;8.20;2.80;;;4.50;95.20;;;;;;4943262;28;20508;-37
2023/03/16 05:56:33;;;;;;;6.80;2.55;;;4.50;95.00;;;;;;4939251;28;20634;-35
2023/03/16 05:58:59;;;;;;;5.97;2.72;;;4.40;95.20;;;;;;4943433;28;20081;-34
2023/03/16 06:01:25;;;;;;;6.75;2.55;;;4.40;95.20;;;;;;4942606;28;20054;-35
2023/03/16 06:03:51;;;;;;;6.28;2.95;;;4.40;95.50;;;;;;4941302;28;20067;-34
2023/03/16 06:06:18;;;;;;;9.35;2.85;;;4.40;95.60;;;;;;4931156;28;20218;-35
2023/03/16 06:08:44;;;;;;;8.60;2.90;;;4.50;95.70;;;;;;4925383;29;20052;-37
2023/03/16 06:11:11;;;;;;;8.95;3.25;;;4.50;95.70;;;;;;4935676;29;20082;-35
2023/03/16 06:13:37;;;;;;;7.55;3.03;;;4.40;95.80;;;;;;4944555;28;20047;-35
2023/03/16 06:16:05;;;;;;;7.55;3.60;;;4.40;95.90;;;;;;4944872;28;20174;-36
2023/03/16 06:18:31;;;;;;;7.65;3.20;;;4.50;96.00;;;;;;4940015;28;20047;-35
2023/03/16 06:20:57;;;;;;;8.88;3.33;;;4.50;96.00;;;;;;4944735;28;20097;-35
2023/03/16 06:23:23;;;;;;;5.97;2.60;;;4.50;95.90;;;;;;4941317;28;20514;-35
2023/03/16 06:25:49;;;;;;;5.80;2.85;;;4.50;96.30;;;;;;4944315;28;20146;-35
2023/03/16 06:28:15;;;;;;;6.50;2.90;;;4.50;96.00;;;;;;4944009;28;20055;-35
2023/03/16 06:30:42;;;;;;;5.65;2.63;;;4.50;96.10;;;;;;4939562;28;20497;-36
2023/03/16 06:33:07;;;;;;;9.98;3.38;;;4.50;96.00;;;;;;4940142;28;20130;-35
2023/03/16 06:35:33;;;;;;;5.18;2.45;;;4.60;96.10;;;;;;4938262;28;20069;-36
2023/03/16 06:37:59;;;;;;;4.30;2.25;;;4.60;96.20;;;;;;4938216;28;20056;-35
2023/03/16 06:40:25;;;;;;;7.07;2.22;;;4.60;96.00;;;;;;4940074;28;20504;-40
2023/03/16 06:42:51;;;;;;;5.35;2.75;;;4.60;96.10;;;;;;4931549;28;20059;-42
2023/03/16 06:45:20;;;;;;;6.50;2.58;;;4.70;96.10;;;;;;4939026;29;20043;-40
2023/03/16 06:47:46;;;;;;;6.18;2.25;;;4.70;96.10;;;;;;4942807;29;20109;-40
2023/03/16 06:50:12;;;;;;;5.65;2.63;;;4.70;96.00;;;;;;4940371;28;20187;-40
2023/03/16 06:52:38;;;;;;;5.50;2.28;;;4.70;96.20;;;;;;4941270;28;20509;-41
2023/03/16 06:55:04;;;;;;;5.50;2.35;;;4.70;96.20;;;;;;4937014;28;20110;-47
2023/03/16 06:57:30;;;;;;;6.20;2.50;;;4.70;96.20;;;;;;4942607;28;20055;-40
2023/03/16 06:59:56;;;;;;;4.68;2.03;;;4.80;96.20;;;;;;4938841;28;20110;-41
2023/03/16 07:02:22;;;;;;;5.45;2.55;;;4.80;96.10;;;;;;4938373;28;20501;-41
2023/03/16 07:04:48;;;;;;;4.22;1.73;;;4.80;96.20;;;;;;4943172;28;20065;-42
2023/03/16 07:07:14;;;;;;;6.85;2.13;;;4.90;96.30;;;;;;4942776;29;20110;-40
2023/03/16 07:09:40;;;;;;;5.53;2.20;;;4.90;96.10;;;;;;4934051;28;20135;-38
2023/03/16 07:12:07;;;;;;;6.40;2.42;;;4.90;96.20;;;;;;4937121;29;20501;-42
2023/03/16 07:14:32;;;;;;;5.97;2.40;;;5.00;96.10;;;;;;4938293;29;20078;-40
2023/03/16 07:16:58;;;;;;;7.05;2.38;;;5.00;96.30;;;;;;4938723;28;20055;-40
2023/03/16 07:19:24;;;;;;;4.82;2.10;;;5.00;96.40;;;;;;4938991;28;20055;-41
2023/03/16 07:21:50;;;;;;;6.60;2.53;;;5.00;96.40;;;;;;4941143;29;20114;-39
2023/03/16 07:24:16;;;;;;;4.20;1.83;;;5.00;96.50;;;;;;4944494;28;20140;-41
2023/03/16 07:26:42;;;;;;;4.20;1.98;;;5.00;96.60;;;;;;4942375;28;20059;-39
2023/03/16 07:29:08;;;;;;;4.72;2.03;;;5.00;96.60;;;;;;4933164;28;20055;-41
2023/03/16 07:31:34;;;;;;;7.55;2.17;;;5.10;96.90;;;;;;4946529;28;20058;-40
2023/03/16 07:34:01;;;;;;;5.00;2.03;;;5.10;97.30;;;;;;4945626;28;20061;-51
2023/03/16 07:36:27;;;;;;;4.72;1.35;;;5.10;97.20;;;;;;4942016;28;20051;-41
2023/03/16 07:38:53;;;;;;;5.45;2.05;;;5.10;97.50;;;;;;4942693;28;20529;-39
2023/03/16 07:41:18;;;;;;;5.43;2.20;;;5.10;97.60;;;;;;4945191;28;20501;-42
2023/03/16 07:43:44;;;;;;;4.85;1.85;;;5.10;97.80;;;;;;4945043;29;20564;-40
2023/03/16 07:46:12;;;;;;;5.25;2.22;;;5.10;97.90;;;;;;4946079;29;20078;-41
2023/03/16 07:48:39;;;;;;;3.72;1.83;;;5.20;98.10;;;;;;4950398;29;20047;-42
2023/03/16 07:51:05;;;;;;;4.75;1.95;;;5.20;98.20;;;;;;4940246;28;20059;-40
2023/03/16 07:53:31;;;;;;;4.47;1.75;;;5.20;98.30;;;;;;4944144;28;20150;-40
2023/03/16 07:55:56;;;;;;;5.20;1.90;;;5.20;98.60;;;;;;4943395;28;20766;-41
2023/03/16 07:58:22;;;;;;;5.40;2.00;;;5.20;99.00;;;;;;4948291;28;20058;-42
2023/03/16 08:00:48;;;;;;;3.85;1.80;;;5.20;98.60;;;;;;4948372;28;20568;-42
2023/03/16 08:03:14;;;;;;;4.57;1.80;;;5.20;98.70;;;;;;4949270;28;20130;-41
2023/03/16 08:05:40;;;;;;;4.95;2.22;;;5.20;98.90;;;;;;4943595;28;20560;-38
2023/03/16 08:08:08;;;;;;;5.47;1.98;;;5.20;99.00;;;;;;4949249;28;20171;-41
2023/03/16 08:10:34;;;;;;;3.88;1.73;;;5.20;99.20;;;;;;4950056;28;20061;-40
2023/03/16 08:13:03;;;;;;;3.53;1.63;;;5.20;99.50;;;;;;4940578;28;20054;-43
2023/03/16 08:15:32;;;;;;;6.53;1.48;;;5.30;99.70;;;;;;4939465;28;20061;-42
2023/03/16 08:18:02;;;;;;;4.47;1.92;;;5.30;99.90;;;;;;4943323;28;20046;-42
2023/03/16 08:20:28;;;;;;;7.05;1.90;;;5.30;99.90;;;;;;4943176;28;20066;-39
2023/03/16 08:22:54;;;;;;;7.50;2.40;;;5.30;99.90;;;;;;4948450;28;20062;-41
2023/03/16 08:25:20;;;;;;;5.53;1.90;;;5.40;99.90;;;;;;4944675;28;20059;-44
2023/03/16 08:27:47;;;;;;;5.03;1.70;;;5.40;99.90;;;;;;4944286;28;20063;-44
2023/03/16 08:30:15;;;;;;;5.13;1.88;;;5.40;99.90;;;;;;4948214;28;20115;-43
2023/03/16 08:32:40;;;;;;;6.15;1.95;;;5.40;99.90;;;;;;4944799;28;20055;-43
2023/03/16 08:35:08;;;;;;;2.70;1.20;;;5.40;99.90;;;;;;4948466;28;20421;-42
2023/03/16 08:37:34;;;;;;;5.00;1.80;;;5.40;99.90;;;;;;4945905;28;20059;-42
2023/03/16 08:40:00;;;;;;;2.75;1.42;;;5.40;99.90;;;;;;4945846;28;20063;-43
2023/03/16 08:42:27;;;;;;;3.75;2.00;;;5.40;99.90;;;;;;4943650;28;20051;-44
2023/03/16 08:44:54;;;;;;;3.13;1.65;;;5.40;99.90;;;;;;4948016;28;20051;-43
2023/03/16 08:47:21;;;;;;;5.45;1.92;;;5.30;99.90;;;;;;4951380;28;20075;-42
2023/03/16 08:49:48;;;;;;;3.88;1.88;;;5.40;99.90;;;;;;4954502;28;20566;-43
2023/03/16 08:52:14;;;;;;;4.03;1.67;;;5.40;99.90;;;;;;4950992;28;20047;-43
2023/03/16 08:54:40;;;;;;;4.30;1.73;;;5.40;99.90;;;;;;4943281;28;20473;-42
2023/03/16 08:57:08;;;;;;;7.53;1.83;;;5.40;99.90;;;;;;4950784;28;20130;-44
2023/03/16 08:59:33;;;;;;;7.72;1.98;;;5.40;99.90;;;;;;4944767;28;20040;-44
2023/03/16 09:01:59;;;;;;;4.53;2.20;;;5.40;99.90;;;;;;4945713;28;20579;-41
2023/03/16 09:04:27;;;;;;;4.80;2.10;;;5.50;99.90;;;;;;4944737;28;20051;-43
2023/03/16 09:06:52;;;;;;;4.53;2.10;;;5.50;99.90;;;;;;4948799;28;20051;-41
2023/03/16 09:09:18;;;;;;;6.18;2.28;;;5.50;99.90;;;;;;4947996;28;20464;-43
2023/03/16 09:11:44;;;;;;;4.97;2.05;;;5.50;99.90;;;;;;4942120;28;20051;-42
2023/03/16 09:14:13;;;;;;;3.92;1.92;;;5.50;99.90;;;;;;4948341;28;20055;-45
2023/03/16 09:16:39;;;;;;;8.98;2.35;;;5.50;99.90;;;;;;4948376;28;20054;-44
2023/03/16 09:19:06;;;;;;;5.18;1.63;;;5.50;99.90;;;;;;4944375;28;20417;-40
2023/03/16 09:21:33;;;;;;;5.13;1.88;;;5.50;99.90;;;;;;4946251;28;20418;-41
2023/03/16 09:23:59;;;;;;;3.55;1.73;;;5.50;99.90;;;;;;4942148;28;20087;-42
2023/03/16 09:26:27;;;;;;;5.22;1.80;;;5.50;99.90;;;;;;4946837;28;20406;-40
2023/03/16 09:28:53;;;;;;;4.40;2.08;;;5.50;99.90;;;;;;4949396;28;20043;-37
2023/03/16 09:31:20;;;;;;;4.32;1.98;;;5.60;99.90;;;;;;4944162;28;20173;-35
2023/03/16 09:33:46;;;;;;;6.00;2.10;;;5.60;99.90;;;;;;4945264;28;20461;-37
2023/03/16 09:36:12;;;;;;;6.25;2.10;;;5.60;99.90;;;;;;4943504;28;20066;-35
2023/03/16 09:38:39;;;;;;;4.47;1.83;;;5.60;99.90;;;;;;4940704;28;20133;-35
2023/03/16 09:41:09;;;;;;;4.45;1.83;;;5.70;99.90;;;;;;4946490;28;20067;-35
2023/03/16 09:44:06;;;;;;;5.40;2.30;;;5.70;99.90;;;;;;4943868;28;20055;-35
2023/03/16 09:46:37;;;;;;;7.13;2.20;;;5.70;99.90;;;;;;4941597;28;20062;-36
2023/03/16 09:49:03;;;;;;;3.35;1.50;;;5.70;99.90;;;;;;4949144;28;20062;-36
2023/03/16 09:51:43;;;;;;;4.28;1.75;;;5.80;99.90;;;;;;4949130;28;20154;-36
2023/03/16 09:54:45;;;;;;;5.97;2.42;;;5.90;99.90;;;;;;4947242;28;20059;-37
2023/03/16 09:57:26;;;;;;;4.35;1.55;;;5.90;99.90;;;;;;4930543;28;20051;-37
2023/03/16 09:59:54;;;;;;;4.70;1.88;;;6.00;99.90;;;;;;4943657;28;20521;-36
2023/03/16 10:02:20;;;;;;;3.78;1.58;;;6.00;99.90;;;;;;4943279;28;20048;-36
2023/03/16 10:05:14;;;;;;;5.13;2.22;;;6.10;99.90;;;;;;4957946;28;20097;-45
2023/03/16 10:07:47;;;;;;;5.75;1.75;;;6.10;99.90;;;;;;4942266;28;20055;-35
2023/03/16 10:10:13;;;;;;;6.07;1.95;;;6.20;99.90;;;;;;4940921;28;20150;-35
2023/03/16 10:12:44;;;;;;;7.35;1.98;;;6.20;99.90;;;;;;4942745;28;20232;-35
2023/03/16 10:15:17;;;;;;;6.40;1.98;;;6.20;99.90;;;;;;4942726;28;20051;-36
2023/03/16 10:18:00;;;;;;;6.63;1.88;;;6.30;99.90;;;;;;4947877;28;20063;-37
2023/03/16 10:20:31;;;;;;;5.25;1.98;;;6.30;99.90;;;;;;4938334;28;20313;-35
2023/03/16 10:23:00;;;;;;;5.40;2.13;;;6.40;99.90;;;;;;4945401;28;20130;-37
2023/03/16 10:25:44;;;;;;;4.88;1.83;;;6.40;99.90;;;;;;4945446;28;20062;-37
2023/03/16 10:28:16;;;;;;;4.97;2.00;;;6.50;99.90;;;;;;4941967;28;20071;-37
2023/03/16 10:30:43;;;;;;;4.68;2.13;;;6.50;99.90;;;;;;4943723;28;20115;-37
2023/03/16 10:33:25;;;;;;;7.22;2.25;;;6.50;99.90;;;;;;4944643;28;20051;-38
2023/03/16 10:35:56;;;;;;;5.45;1.77;;;6.60;99.90;;;;;;4942719;28;20051;-36
2023/03/16 10:38:41;;;;;;;4.32;2.08;;;6.70;99.90;;;;;;4939996;28;20050;-37
2023/03/16 10:41:24;;;;;;;4.80;2.08;;;6.70;99.90;;;;;;4943804;28;20063;-36
2023/03/16 10:43:54;;;;;;;;;;;6.80;99.90;;;;;;4942835;28;20055;-35
2023/03/16 10:46:22;;;;;;;5.15;2.20;;;6.90;99.90;;;;;;4943399;28;19918;-35
2023/03/16 10:48:59;;;;;;;4.65;1.92;;;6.90;99.90;;;;;;4942114;28;20066;-38
2023/03/16 10:51:29;;;;;;;4.20;1.80;;;6.90;99.90;;;;;;4944661;28;20146;-38
2023/03/16 10:54:09;;;;;;;10.45;1.48;;;7.00;99.90;;;;;;4944527;28;20497;-35
2023/03/16 10:56:34;;;;;;;4.07;2.00;;;7.10;99.90;;;;;;4944422;28;20134;-37
2023/03/16 10:59:01;;;;;;;6.38;1.88;;;7.20;99.90;;;;;;4947977;28;20151;-36
2023/03/16 11:01:30;;;;;;;3.38;1.52;;;7.20;99.90;;;;;;4947335;28;20497;-35
2023/03/16 11:03:57;;;;;;;5.32;1.80;;;7.30;99.90;;;;;;4940933;28;20584;-37
2023/03/16 11:06:24;;;;;;;4.78;1.95;;;7.30;99.90;;;;;;4939276;28;20061;-36
2023/03/16 11:08:52;;;;;;;3.33;1.40;;;7.40;99.90;;;;;;4946887;28;20055;-36
2023/03/16 11:11:29;;;;;;;4.35;1.88;;;7.40;99.90;;;;;;4946116;28;20051;-35
2023/03/16 11:14:09;;;;;;;4.30;1.70;;;7.50;99.90;;;;;;4938575;28;20074;-38
2023/03/16 11:17:09;;;;;;;6.63;2.72;;;7.50;99.90;;;;;;4951934;28;20058;-36
2023/03/16 11:19:59;;;;;;;6.57;1.98;;;7.60;99.90;;;;;;4944990;28;20142;-36
2023/03/16 11:22:25;;;;;;;4.65;2.40;;;7.60;99.90;;;;;;4937712;28;20561;-35
2023/03/16 11:25:14;;;;;;;4.70;1.88;;;7.70;99.90;;;;;;4945426;28;20130;-37
2023/03/16 11:27:52;;;;;;;5.75;1.48;;;7.80;99.90;;;;;;4942503;28;20063;-35
2023/03/16 11:30:29;;;;;;;4.97;1.73;;;8.00;99.90;;;;;;4947282;28;20138;-42
2023/03/16 11:32:58;;;;;;;4.18;1.80;;;8.10;99.30;;;;;;4942279;28;20062;-41
2023/03/16 11:35:26;;;;;;;5.25;2.45;;;8.20;99.50;;;;;;4944397;28;20055;-42
2023/03/16 11:38:16;;;;;;;5.18;2.22;;;8.30;99.30;;;;;;4943587;28;20145;-44
2023/03/16 11:41:21;;;;;;;5.20;1.98;;;8.50;98.60;;;;;;4939844;28;20063;-42
2023/03/16 11:44:00;;;;;;;5.15;1.88;;;8.60;97.90;;;;;;4941121;28;20078;-41
2023/03/16 11:47:06;;;;;;;3.67;1.73;;;8.60;97.40;;;;;;4948062;28;20062;-39
2023/03/16 11:49:46;;;;;;;5.00;1.65;;;8.70;97.50;;;;;;4932137;28;20696;-42
2023/03/16 11:52:44;;;;;;;4.32;1.73;;;8.80;97.30;;;;;;4942526;28;20059;-41
2023/03/16 11:55:38;;;;;;;2.75;1.30;;;8.90;96.80;;;;;;4942306;28;20142;-40
2023/03/16 11:58:27;;;;;;;3.60;1.20;;;8.90;95.60;;;;;;4945218;28;20055;-41
2023/03/16 12:01:11;;;;;;;4.80;1.80;;;8.90;95.80;;;;;;4946861;28;20055;-42
2023/03/16 12:04:00;;;;;;;4.15;1.80;;;8.80;95.80;;;;;;4945073;28;20051;-42
2023/03/16 12:06:47;;;;;;;4.30;1.63;;;8.80;96.10;;;;;;4943466;28;20497;-41
2023/03/16 12:09:27;;;;;;;4.28;1.92;;;8.90;96.10;;;;;;4941041;28;20055;-41
2023/03/16 12:12:03;;;;;;;6.47;1.77;;;8.90;95.70;;;;;;4946081;28;20481;-41
2023/03/16 12:14:37;;;;;;;4.05;1.42;;;8.90;95.70;;;;;;4944659;28;20054;-40
2023/03/16 12:17:14;;;;;;;6.15;2.00;;;8.90;95.40;;;;;;4951805;28;20054;-41
2023/03/16 12:19:52;;;;;;;3.92;1.50;;;8.90;95.70;;;;;;4946361;28;20054;-41
2023/03/16 12:22:32;;;;;;;4.25;1.73;;;8.90;95.20;;;;;;4947111;28;20074;-42
2023/03/16 12:24:58;;;;;;;4.65;1.40;;;8.90;94.80;;;;;;4945111;28;20055;-50
2023/03/16 12:27:37;;;;;;;6.65;1.92;;;8.90;94.70;;;;;;4947257;28;20066;-42
2023/03/16 12:30:23;;;;;;;4.18;1.90;;;8.90;94.90;;;;;;4948247;28;21162;-41
2023/03/16 12:33:06;;;;;;;5.22;2.20;;;8.90;95.10;;;;;;4946420;28;20103;-42
2023/03/16 12:35:50;;;;;;;5.75;1.80;;;9.00;94.90;;;;;;4948376;28;20047;-39
2023/03/16 12:38:52;;;;;;;6.00;2.42;;;9.00;94.70;;;;;;4945862;28;20410;-42
2023/03/16 12:41:49;;;;;;;3.53;1.70;;;9.10;94.20;;;;;;4942664;28;20504;-41
2023/03/16 12:44:26;;;;;;;3.28;1.50;;;9.10;94.10;;;;;;4944622;28;20060;-41
2023/03/16 12:46:58;;;;;;;6.07;2.25;;;9.10;93.70;;;;;;4944148;28;20051;-41
2023/03/16 12:49:25;;;;;;;3.90;1.55;;;9.20;93.50;;;;;;4943041;28;20051;-42
2023/03/16 12:52:04;;;;;;;4.45;1.67;;;9.30;93.80;;;;;;4944590;28;20077;-41
2023/03/16 12:54:30;;;;;;;4.28;1.73;;;9.40;93.60;;;;;;4945156;28;20063;-43
2023/03/16 12:57:04;;;;;;;6.78;1.58;;;9.50;93.00;;;;;;4943485;28;20528;-43
2023/03/16 12:59:49;;;;;;;5.32;1.85;;;9.60;92.40;;;;;;4941820;28;20082;-41
2023/03/16 13:02:18;;;;;;;4.07;1.52;;;9.80;92.00;;;;;;4943271;28;20091;-42
2023/03/16 13:04:47;;;;;;;4.78;1.67;;;9.90;91.90;;;;;;4944791;28;20067;-43
2023/03/16 13:07:22;;;;;;;5.13;1.85;;;10.10;91.70;;;;;;4942317;28;20073;-42
2023/03/16 13:09:59;;;;;;;7.93;2.58;;;10.20;91.30;;;;;;4944763;28;20090;-43
2023/03/16 13:12:35;;;;;;;6.43;1.90;;;10.30;90.70;;;;;;4942307;28;20039;-45